createdAt,value
2023-05-04T00:00:46.185Z,98583.02
2023-05-04T00:01:52.852Z,98583.34
2023-05-04T00:02:59.521Z,98585.02
2023-05-04T00:04:06.733Z,98582.84
2023-05-04T00:05:14.012Z,98584.23
2023-05-04T00:06:21.453Z,98584.41
2023-05-04T00:07:28.023Z,98581.02
2023-05-04T00:08:34.650Z,98578.16
2023-05-04T00:09:41.123Z,98584.85
2023-05-04T00:10:47.932Z,98581.36
2023-05-04T00:11:54.929Z,98582.50
2023-05-04T00:13:01.492Z,98580.84
2023-05-04T00:14:11.451Z,98581.98
2023-05-04T00:15:17.984Z,98580.23
2023-05-04T00:16:24.481Z,98579.83
2023-05-04T00:17:31.278Z,98581.18
2023-05-04T00:18:38.611Z,98584.25
2023-05-04T00:19:47.045Z,98583.20
2023-05-04T00:20:53.910Z,98582.31
2023-05-04T00:22:00.550Z,98586.43
2023-05-04T00:23:07.549Z,98583.41
2023-05-04T00:24:14.137Z,98584.43
2023-05-04T00:25:21.989Z,98586.79
2023-05-04T00:26:28.981Z,98589.79
2023-05-04T00:27:36.866Z,98591.14
2023-05-04T00:28:43.694Z,98590.94
2023-05-04T00:29:50.561Z,98589.99
2023-05-04T00:30:58.254Z,98590.54
2023-05-04T00:32:07.259Z,98589.36
2023-05-04T00:33:14.141Z,98590.16
2023-05-04T00:34:22.242Z,98590.80
2023-05-04T00:35:29.380Z,98591.63
2023-05-04T00:36:36.969Z,98592.48
2023-05-04T00:37:45.026Z,98592.58
2023-05-04T00:38:56.465Z,98591.64
2023-05-04T00:40:07.541Z,98592.23
2023-05-04T00:41:14.487Z,98595.19
2023-05-04T00:42:21.290Z,98596.55
2023-05-04T00:43:28.132Z,98593.54
2023-05-04T00:44:36.347Z,98596.11
2023-05-04T00:45:43.077Z,98596.10
2023-05-04T00:46:50.060Z,98595.67
2023-05-04T00:47:57.057Z,98597.38
2023-05-04T00:49:06.651Z,98599.40
2023-05-04T00:50:16.359Z,98606.21
2023-05-04T00:51:24.557Z,98604.09
2023-05-04T00:52:32.789Z,98605.59
2023-05-04T00:53:39.526Z,98605.81
2023-05-04T00:54:46.644Z,98604.77
2023-05-04T00:55:53.438Z,98607.89
2023-05-04T00:57:00.754Z,98611.64
2023-05-04T00:58:08.454Z,98610.55
2023-05-04T00:59:16.406Z,98605.31
2023-05-04T01:00:23.806Z,98611.70
2023-05-04T01:01:30.819Z,98610.86
2023-05-04T01:02:38.195Z,98610.73
2023-05-04T01:03:45.424Z,98613.17
2023-05-04T01:04:52.577Z,98614.56
2023-05-04T01:06:22.270Z,98618.70
2023-05-04T01:08:03.644Z,98614.52
2023-05-04T01:09:34.820Z,98615.92
2023-05-04T01:11:00.304Z,98613.55
2023-05-04T01:12:19.722Z,98618.02
2023-05-04T01:13:26.882Z,98619.11
2023-05-04T01:14:34.945Z,98619.83
2023-05-04T01:15:42.886Z,98620.79
2023-05-04T01:16:50.119Z,98621.89
2023-05-04T01:17:57.911Z,98619.73
2023-05-04T01:19:06.365Z,98618.91
2023-05-04T01:20:15.788Z,98619.96
2023-05-04T01:21:24.051Z,98618.08
2023-05-04T01:22:31.780Z,98616.58
2023-05-04T01:23:40.228Z,98617.08
2023-05-04T01:24:48.264Z,98617.84
2023-05-04T01:26:09.187Z,98618.89
2023-05-04T01:27:40.316Z,98621.05
2023-05-04T01:28:54.641Z,98622.11
2023-05-04T01:30:37.082Z,98622.33
2023-05-04T01:31:44.179Z,98622.26
2023-05-04T01:32:51.028Z,98622.54
2023-05-04T01:33:58.451Z,98625.55
2023-05-04T01:35:06.452Z,98624.93
2023-05-04T01:36:13.285Z,98624.86
2023-05-04T01:37:21.275Z,98622.05
2023-05-04T01:38:28.603Z,98620.89
2023-05-04T01:39:36.275Z,98619.56
2023-05-04T01:40:43.120Z,98620.48
2023-05-04T01:41:53.704Z,98620.74
2023-05-04T01:43:01.289Z,98620.23
2023-05-04T01:44:08.204Z,98622.67
2023-05-04T01:45:15.468Z,98622.09
2023-05-04T01:46:22.420Z,98624.36
2023-05-04T01:47:29.649Z,98622.30
2023-05-04T01:48:39.619Z,98619.81
2023-05-04T01:49:46.383Z,98622.93
2023-05-04T01:50:54.084Z,98622.80
2023-05-04T01:52:01.378Z,98624.95
2023-05-04T01:53:08.422Z,98624.61
2023-05-04T01:54:15.637Z,98621.70
2023-05-04T01:55:23.051Z,98621.70
2023-05-04T01:56:30.291Z,98621.88
2023-05-04T01:57:40.239Z,98623.73
2023-05-04T01:58:47.558Z,98618.91
2023-05-04T01:59:55.890Z,98618.40
2023-05-04T02:01:04.179Z,98612.95
2023-05-04T02:02:11.845Z,98610.81
2023-05-04T02:03:19.872Z,98610.89
2023-05-04T02:04:28.101Z,98606.48
2023-05-04T02:05:35.221Z,98605.38
2023-05-04T02:06:41.829Z,98607.14
2023-05-04T02:07:48.496Z,98605.75
2023-05-04T02:08:55.749Z,98605.63
2023-05-04T02:10:03.121Z,98608.11
2023-05-04T02:11:10.177Z,98612.38
2023-05-04T02:12:16.976Z,98608.66
2023-05-04T02:13:24.609Z,98619.95
2023-05-04T02:14:32.029Z,98633.73
2023-05-04T02:15:38.691Z,98633.88
2023-05-04T02:16:45.429Z,98632.40
2023-05-04T02:17:52.024Z,98618.11
2023-05-04T02:18:58.656Z,98615.16
2023-05-04T02:20:06.240Z,98617.96
2023-05-04T02:21:15.343Z,98617.30
2023-05-04T02:22:23.547Z,98618.69
2023-05-04T02:23:33.277Z,98617.38
2023-05-04T02:24:42.020Z,98617.85
2023-05-04T02:25:48.862Z,98616.52
2023-05-04T02:26:55.774Z,98618.19
2023-05-04T02:28:02.967Z,98620.59
2023-05-04T02:29:09.488Z,98620.42
2023-05-04T02:30:16.477Z,98625.79
2023-05-04T02:31:22.879Z,98625.88
2023-05-04T02:32:29.939Z,98630.46
2023-05-04T02:33:37.229Z,98631.61
2023-05-04T02:34:43.756Z,98628.37
2023-05-04T02:35:50.381Z,98627.61
2023-05-04T02:36:57.450Z,98621.27
2023-05-04T02:38:04.601Z,98607.34
2023-05-04T02:39:12.047Z,98594.30
2023-05-04T02:40:18.846Z,98593.92
2023-05-04T02:41:25.596Z,98604.88
2023-05-04T02:42:32.353Z,98614.16
2023-05-04T02:43:39.729Z,98618.57
2023-05-04T02:44:46.495Z,98618.48
2023-05-04T02:45:53.023Z,98616.83
2023-05-04T02:47:00.555Z,98615.86
2023-05-04T02:48:10.340Z,98613.96
2023-05-04T02:49:17.402Z,98619.38
2023-05-04T02:50:24.132Z,98626.92
2023-05-04T02:51:30.616Z,98627.64
2023-05-04T02:52:37.828Z,98628.19
2023-05-04T02:53:44.958Z,98625.20
2023-05-04T02:54:53.116Z,98643.21
2023-05-04T02:55:59.921Z,98645.86
2023-05-04T02:57:07.932Z,98629.69
2023-05-04T02:58:14.889Z,98626.70
2023-05-04T02:59:21.708Z,98628.30
2023-05-04T03:00:28.873Z,98629.17
2023-05-04T03:01:35.506Z,98631.10
2023-05-04T03:02:42.362Z,98631.63
2023-05-04T03:03:49.319Z,98628.03
2023-05-04T03:04:56.236Z,98629.29
2023-05-04T03:06:06.246Z,98628.63
2023-05-04T03:07:14.273Z,98631.52
2023-05-04T03:08:20.961Z,98635.39
2023-05-04T03:09:27.529Z,98637.45
2023-05-04T03:10:34.134Z,98635.93
2023-05-04T03:11:40.720Z,98637.84
2023-05-04T03:12:47.608Z,98637.83
2023-05-04T03:13:54.277Z,98633.34
2023-05-04T03:15:02.817Z,98625.88
2023-05-04T03:16:09.942Z,98614.56
2023-05-04T03:17:16.997Z,98602.77
2023-05-04T03:18:24.111Z,98594.09
2023-05-04T03:19:31.118Z,98598.66
2023-05-04T03:20:38.059Z,98613.23
2023-05-04T03:21:47.678Z,98623.06
2023-05-04T03:22:54.721Z,98628.06
2023-05-04T03:24:02.183Z,98629.70
2023-05-04T03:25:10.041Z,98627.52
2023-05-04T03:26:18.107Z,98625.76
2023-05-04T03:27:25.496Z,98622.03
2023-05-04T03:28:32.169Z,98620.45
2023-05-04T03:29:39.060Z,98622.42
2023-05-04T03:30:45.798Z,98625.46
2023-05-04T03:31:53.409Z,98627.16
2023-05-04T03:33:00.459Z,98621.70
2023-05-04T03:34:07.231Z,98617.71
2023-05-04T03:35:24.091Z,98617.17
2023-05-04T03:36:35.164Z,98617.38
2023-05-04T03:37:42.261Z,98618.64
2023-05-04T03:38:48.972Z,98622.42
2023-05-04T03:39:56.097Z,98625.70
2023-05-04T03:41:02.888Z,98630.39
2023-05-04T03:42:09.676Z,98635.72
2023-05-04T03:43:16.251Z,98634.05
2023-05-04T03:44:23.039Z,98630.38
2023-05-04T03:45:29.924Z,98629.17
2023-05-04T03:46:37.957Z,98625.56
2023-05-04T03:47:45.463Z,98628.52
2023-05-04T03:48:52.291Z,98633.59
2023-05-04T03:49:59.420Z,98633.48
2023-05-04T03:51:07.905Z,98636.09
2023-05-04T03:52:14.491Z,98638.27
2023-05-04T03:53:22.419Z,98636.63
2023-05-04T03:54:29.035Z,98634.11
2023-05-04T03:55:36.112Z,98635.63
2023-05-04T03:56:42.822Z,98638.58
2023-05-04T03:57:50.660Z,98640.92
2023-05-04T03:58:57.436Z,98640.59
2023-05-04T04:00:08.468Z,98642.52
2023-05-04T04:01:21.144Z,98654.08
2023-05-04T04:02:28.916Z,98660.46
2023-05-04T04:03:37.716Z,98665.16
2023-05-04T04:04:44.911Z,98672.90
2023-05-04T04:05:51.690Z,98670.06
2023-05-04T04:06:59.939Z,98673.54
2023-05-04T04:08:08.443Z,98672.48
2023-05-04T04:09:15.850Z,98669.80
2023-05-04T04:10:23.164Z,98676.78
2023-05-04T04:11:31.278Z,98675.82
2023-05-04T04:12:38.601Z,98679.00
2023-05-04T04:13:45.184Z,98679.05
2023-05-04T04:14:53.572Z,98681.39
2023-05-04T04:16:00.582Z,98683.30
2023-05-04T04:17:07.680Z,98686.18
2023-05-04T04:18:14.675Z,98682.20
2023-05-04T04:19:21.273Z,98681.05
2023-05-04T04:20:28.057Z,98684.05
2023-05-04T04:21:34.660Z,98685.14
2023-05-04T04:22:41.470Z,98684.66
2023-05-04T04:23:48.189Z,98688.52
2023-05-04T04:24:55.714Z,98690.47
2023-05-04T04:26:02.782Z,98695.17
2023-05-04T04:27:09.919Z,98694.63
2023-05-04T04:28:17.918Z,98700.19
2023-05-04T04:29:24.761Z,98695.89
2023-05-04T04:30:32.162Z,98696.41
2023-05-04T04:31:40.536Z,98695.77
2023-05-04T04:32:48.421Z,98696.80
2023-05-04T04:33:55.546Z,98700.13
2023-05-04T04:35:02.270Z,98702.57
2023-05-04T04:36:09.171Z,98702.16
2023-05-04T04:37:15.786Z,98707.43
2023-05-04T04:38:23.563Z,98706.73
2023-05-04T04:39:31.143Z,98705.21
2023-05-04T04:40:38.250Z,98705.88
2023-05-04T04:41:45.367Z,98705.79
2023-05-04T04:42:54.171Z,98707.29
2023-05-04T04:44:01.476Z,98708.89
2023-05-04T04:45:09.566Z,98711.99
2023-05-04T04:46:17.065Z,98712.45
2023-05-04T04:47:23.828Z,98714.35
2023-05-04T04:48:30.824Z,98716.98
2023-05-04T04:49:38.442Z,98718.46
2023-05-04T04:50:45.919Z,98719.79
2023-05-04T04:51:52.846Z,98720.88
2023-05-04T04:53:00.127Z,98723.35
2023-05-04T04:54:06.832Z,98725.31
2023-05-04T04:55:13.514Z,98727.33
2023-05-04T04:56:20.525Z,98722.33
2023-05-04T04:57:27.896Z,98727.20
2023-05-04T04:58:35.936Z,98728.96
2023-05-04T04:59:43.221Z,98728.23
2023-05-04T05:00:50.073Z,98727.86
2023-05-04T05:01:59.631Z,98729.84
2023-05-04T05:03:06.403Z,98731.05
2023-05-04T05:04:13.694Z,98728.05
2023-05-04T05:05:21.729Z,98728.80
2023-05-04T05:06:29.229Z,98731.83
2023-05-04T05:07:36.528Z,98732.88
2023-05-04T05:08:45.229Z,98730.87
2023-05-04T05:09:52.907Z,98729.39
2023-05-04T05:10:59.674Z,98730.66
2023-05-04T05:12:07.460Z,98732.84
2023-05-04T05:13:14.259Z,98731.42
2023-05-04T05:14:20.878Z,98729.70
2023-05-04T05:15:27.883Z,98727.23
2023-05-04T05:16:35.166Z,98730.02
2023-05-04T05:17:42.116Z,98731.72
2023-05-04T05:18:49.358Z,98732.23
2023-05-04T05:19:56.908Z,98729.14
2023-05-04T05:21:04.112Z,98730.06
2023-05-04T05:22:11.928Z,98730.62
2023-05-04T05:23:19.523Z,98730.08
2023-05-04T05:24:26.746Z,98731.47
2023-05-04T05:25:33.857Z,98730.70
2023-05-04T05:26:41.261Z,98731.09
2023-05-04T05:27:49.227Z,98730.77
2023-05-04T05:28:57.132Z,98728.94
2023-05-04T05:30:04.873Z,98730.42
2023-05-04T05:31:13.103Z,98731.58
2023-05-04T05:32:20.922Z,98729.23
2023-05-04T05:33:28.563Z,98728.35
2023-05-04T05:34:35.972Z,98729.11
2023-05-04T05:35:43.041Z,98731.41
2023-05-04T05:36:50.423Z,98728.85
2023-05-04T05:37:58.539Z,98730.23
2023-05-04T05:39:05.604Z,98726.13
2023-05-04T05:40:18.616Z,98725.14
2023-05-04T05:41:25.945Z,98727.72
2023-05-04T05:42:32.810Z,98724.81
2023-05-04T05:43:40.703Z,98726.67
2023-05-04T05:44:47.715Z,98725.33
2023-05-04T05:46:00.149Z,98721.37
2023-05-04T05:47:08.294Z,98720.57
2023-05-04T05:48:16.507Z,98719.39
2023-05-04T05:49:30.006Z,98722.34
2023-05-04T05:50:42.364Z,98717.30
2023-05-04T05:51:51.444Z,98716.66
2023-05-04T05:52:59.070Z,98719.08
2023-05-04T05:54:05.824Z,98721.34
2023-05-04T05:55:12.485Z,98719.11
2023-05-04T05:56:19.035Z,98720.84
2023-05-04T05:57:26.207Z,98719.70
2023-05-04T05:58:33.513Z,98721.13
2023-05-04T05:59:40.237Z,98719.23
2023-05-04T06:00:48.141Z,98720.16
2023-05-04T06:01:54.839Z,98718.02
2023-05-04T06:03:01.508Z,98720.34
2023-05-04T06:04:08.817Z,98721.55
2023-05-04T06:05:15.940Z,98724.66
2023-05-04T06:06:23.093Z,98723.02
2023-05-04T06:07:33.061Z,98723.77
2023-05-04T06:08:39.373Z,98723.45
2023-05-04T06:09:46.089Z,98722.95
2023-05-04T06:10:52.812Z,98719.46
2023-05-04T06:11:59.470Z,98719.83
2023-05-04T06:13:06.174Z,98722.20
2023-05-04T06:14:13.089Z,98726.55
2023-05-04T06:15:19.752Z,98725.04
2023-05-04T06:16:27.185Z,98729.67
2023-05-04T06:17:34.915Z,98726.61
2023-05-04T06:18:41.698Z,98722.45
2023-05-04T06:19:50.869Z,98721.89
2023-05-04T06:21:01.132Z,98722.99
2023-05-04T06:22:11.039Z,98721.10
2023-05-04T06:23:18.614Z,98725.47
2023-05-04T06:24:26.219Z,98728.23
2023-05-04T06:25:33.754Z,98731.14
2023-05-04T06:26:40.035Z,98737.18
2023-05-04T06:27:46.749Z,98737.60
2023-05-04T06:28:53.283Z,98739.07
2023-05-04T06:30:00.034Z,98739.52
2023-05-04T06:31:06.792Z,98740.23
2023-05-04T06:32:13.628Z,98741.48
2023-05-04T06:33:20.494Z,98742.45
2023-05-04T06:34:27.115Z,98736.79
2023-05-04T06:35:34.165Z,98733.14
2023-05-04T06:36:40.797Z,98734.86
2023-05-04T06:37:47.513Z,98731.38
2023-05-04T06:38:54.242Z,98730.28
2023-05-04T06:40:00.935Z,98731.28
2023-05-04T06:41:08.045Z,98731.08
2023-05-04T06:42:15.472Z,98730.41
2023-05-04T06:43:21.946Z,98727.93
2023-05-04T06:44:29.108Z,98725.25
2023-05-04T06:45:38.909Z,98723.73
2023-05-04T06:46:45.538Z,98718.70
2023-05-04T06:47:53.793Z,98716.70
2023-05-04T06:49:00.978Z,98727.44
2023-05-04T06:50:11.954Z,98727.22
2023-05-04T06:51:18.398Z,98725.63
2023-05-04T06:52:24.792Z,98724.88
2023-05-04T06:53:32.148Z,98727.77
2023-05-04T06:54:41.892Z,98730.27
2023-05-04T06:55:48.475Z,98729.29
2023-05-04T06:56:55.071Z,98728.35
2023-05-04T06:58:02.383Z,98731.52
2023-05-04T06:59:11.075Z,98730.27
2023-05-04T07:00:17.852Z,98727.71
2023-05-04T07:01:24.882Z,98730.17
2023-05-04T07:02:32.522Z,98728.41
2023-05-04T07:03:40.025Z,98730.10
2023-05-04T07:04:46.748Z,98730.91
2023-05-04T07:05:56.380Z,98731.84
2023-05-04T07:07:03.143Z,98729.89
2023-05-04T07:08:10.813Z,98735.80
2023-05-04T07:09:19.066Z,98735.31
2023-05-04T07:10:25.686Z,98739.73
2023-05-04T07:11:32.513Z,98738.05
2023-05-04T07:12:38.960Z,98733.95
2023-05-04T07:13:45.815Z,98734.58
2023-05-04T07:14:53.287Z,98728.14
2023-05-04T07:16:00.268Z,98726.83
2023-05-04T07:17:07.425Z,98722.03
2023-05-04T07:18:14.168Z,98717.95
2023-05-04T07:19:21.448Z,98715.94
2023-05-04T07:20:29.543Z,98712.82
2023-05-04T07:21:36.535Z,98712.49
2023-05-04T07:22:43.442Z,98712.27
2023-05-04T07:23:50.583Z,98711.84
2023-05-04T07:25:00.299Z,98709.98
2023-05-04T07:26:09.521Z,98708.77
2023-05-04T07:27:19.456Z,98708.39
2023-05-04T07:28:26.333Z,98709.17
2023-05-04T07:29:36.648Z,98703.54
2023-05-04T07:30:43.457Z,98703.44
2023-05-04T07:31:50.184Z,98698.05
2023-05-04T07:32:58.089Z,98699.05
2023-05-04T07:34:04.866Z,98696.02
2023-05-04T07:35:12.097Z,98698.88
2023-05-04T07:36:18.860Z,98698.51
2023-05-04T07:37:26.032Z,98698.67
2023-05-04T07:38:35.690Z,98701.10
2023-05-04T07:39:42.428Z,98695.79
2023-05-04T07:40:49.167Z,98694.11
2023-05-04T07:41:56.659Z,98697.78
2023-05-04T07:43:03.193Z,98698.19
2023-05-04T07:44:12.748Z,98695.29
2023-05-04T07:45:19.792Z,98692.00
2023-05-04T07:46:26.486Z,98694.79
2023-05-04T07:47:33.347Z,98689.88
2023-05-04T07:48:40.711Z,98687.18
2023-05-04T07:49:47.389Z,98685.27
2023-05-04T07:50:54.047Z,98686.91
2023-05-04T07:52:01.105Z,98684.19
2023-05-04T07:53:09.082Z,98681.42
2023-05-04T07:54:17.245Z,98678.23
2023-05-04T07:55:23.920Z,98679.24
2023-05-04T07:56:31.470Z,98678.98
2023-05-04T07:57:39.062Z,98681.10
2023-05-04T07:58:46.359Z,98677.83
2023-05-04T07:59:57.628Z,98679.55
2023-05-04T08:01:05.164Z,98679.57
2023-05-04T08:02:12.958Z,98677.10
2023-05-04T08:03:19.735Z,98676.25
2023-05-04T08:04:26.592Z,98674.23
2023-05-04T08:05:34.007Z,98676.34
2023-05-04T08:06:42.971Z,98676.89
2023-05-04T08:07:49.569Z,98668.69
2023-05-04T08:08:56.342Z,98668.54
2023-05-04T08:10:03.274Z,98667.16
2023-05-04T08:11:20.562Z,98663.12
2023-05-04T08:12:28.952Z,98662.95
2023-05-04T08:13:36.414Z,98659.35
2023-05-04T08:14:44.127Z,98655.02
2023-05-04T08:15:51.197Z,98653.83
2023-05-04T08:16:58.011Z,98652.36
2023-05-04T08:18:04.734Z,98651.42
2023-05-04T08:19:14.916Z,98651.77
2023-05-04T08:20:25.118Z,98647.48
2023-05-04T08:21:32.295Z,98648.69
2023-05-04T08:22:40.888Z,98650.77
2023-05-04T08:23:47.451Z,98649.98
2023-05-04T08:24:54.564Z,98645.86
2023-05-04T08:26:04.794Z,98644.54
2023-05-04T08:27:16.428Z,98643.70
2023-05-04T08:28:24.198Z,98640.30
2023-05-04T08:29:33.054Z,98635.14
2023-05-04T08:30:41.008Z,98634.19
2023-05-04T08:31:47.800Z,98631.54
2023-05-04T08:32:57.284Z,98631.48
2023-05-04T08:34:05.866Z,98632.36
2023-05-04T08:35:12.972Z,98631.63
2023-05-04T08:36:20.167Z,98627.00
2023-05-04T08:37:27.643Z,98628.30
2023-05-04T08:38:34.579Z,98623.83
2023-05-04T08:39:42.600Z,98625.42
2023-05-04T08:40:50.570Z,98620.84
2023-05-04T08:41:58.997Z,98619.56
2023-05-04T08:43:05.920Z,98616.58
2023-05-04T08:44:13.879Z,98619.41
2023-05-04T08:45:21.385Z,98618.99
2023-05-04T08:46:31.957Z,98617.44
2023-05-04T08:47:39.153Z,98614.68
2023-05-04T08:48:49.072Z,98618.24
2023-05-04T08:49:56.666Z,98619.82
2023-05-04T08:51:04.106Z,98619.30
2023-05-04T08:52:11.550Z,98616.55
2023-05-04T08:53:19.856Z,98609.81
2023-05-04T08:54:29.785Z,98611.06
2023-05-04T08:55:38.928Z,98606.98
2023-05-04T08:56:47.486Z,98600.98
2023-05-04T08:57:55.379Z,98599.67
2023-05-04T08:59:02.976Z,98595.86
2023-05-04T09:00:14.035Z,98596.34
2023-05-04T09:01:21.346Z,98598.89
2023-05-04T09:02:28.139Z,98597.69
2023-05-04T09:03:35.427Z,98599.71
2023-05-04T09:04:42.273Z,98598.95
2023-05-04T09:05:48.756Z,98596.85
2023-05-04T09:06:55.635Z,98599.29
2023-05-04T09:08:02.975Z,98595.64
2023-05-04T09:09:11.161Z,98596.92
2023-05-04T09:10:18.271Z,98597.45
2023-05-04T09:11:25.422Z,98598.08
2023-05-04T09:12:32.562Z,98598.27
2023-05-04T09:13:39.812Z,98597.35
2023-05-04T09:14:47.796Z,98591.21
2023-05-04T09:15:59.253Z,98591.14
2023-05-04T09:17:06.220Z,98586.33
2023-05-04T09:18:13.170Z,98586.58
2023-05-04T09:19:21.243Z,98582.30
2023-05-04T09:20:28.225Z,98578.42
2023-05-04T09:21:35.834Z,98577.40
2023-05-04T09:22:44.024Z,98579.63
2023-05-04T09:23:51.997Z,98575.68
2023-05-04T09:25:13.287Z,98572.90
2023-05-04T09:26:31.488Z,98574.18
2023-05-04T09:27:39.119Z,98572.95
2023-05-04T09:28:46.801Z,98571.73
2023-05-04T09:29:57.445Z,98569.77
2023-05-04T09:31:05.469Z,98571.45
2023-05-04T09:32:16.341Z,98573.29
2023-05-04T09:33:30.976Z,98570.83
2023-05-04T09:34:38.686Z,98569.29
2023-05-04T09:35:48.649Z,98567.94
2023-05-04T09:37:03.095Z,98564.89
2023-05-04T09:38:10.021Z,98565.27
2023-05-04T09:39:17.457Z,98567.71
2023-05-04T09:40:43.105Z,98568.11
2023-05-04T09:41:51.328Z,98568.02
2023-05-04T09:43:02.709Z,98564.13
2023-05-04T09:44:24.024Z,98568.38
2023-05-04T09:45:30.521Z,98571.22
2023-05-04T09:46:38.504Z,98570.89
2023-05-04T09:47:46.627Z,98570.64
2023-05-04T09:48:55.840Z,98575.33
2023-05-04T09:50:21.507Z,98572.41
2023-05-04T09:51:31.867Z,98577.40
2023-05-04T09:52:39.677Z,98582.14
2023-05-04T09:53:47.494Z,98581.36
2023-05-04T09:54:55.338Z,98583.15
2023-05-04T09:56:24.710Z,98584.30
2023-05-04T09:57:31.993Z,98588.01
2023-05-04T09:58:39.849Z,98585.39
2023-05-04T09:59:47.103Z,98581.61
2023-05-04T10:00:58.390Z,98578.92
2023-05-04T10:02:18.182Z,98577.57
2023-05-04T10:03:30.197Z,98572.95
2023-05-04T10:04:37.989Z,98572.77
2023-05-04T10:05:44.639Z,98570.85
2023-05-04T10:06:51.230Z,98567.28
2023-05-04T10:07:57.887Z,98566.69
2023-05-04T10:09:05.680Z,98561.42
2023-05-04T10:10:19.327Z,98560.56
2023-05-04T10:11:27.212Z,98560.13
2023-05-04T10:12:33.984Z,98557.61
2023-05-04T10:13:41.032Z,98557.45
2023-05-04T10:14:51.250Z,98558.73
2023-05-04T10:16:38.288Z,98553.18
2023-05-04T10:18:09.922Z,98552.94
2023-05-04T10:19:56.418Z,98554.66
2023-05-04T10:21:27.809Z,98556.21
2023-05-04T10:23:01.074Z,98555.84
2023-05-04T10:24:39.343Z,98555.02
2023-05-04T10:26:23.955Z,98553.83
2023-05-04T10:27:50.553Z,98551.48
2023-05-04T10:29:06.352Z,98550.08
2023-05-04T10:30:14.975Z,98553.21
2023-05-04T10:31:23.700Z,98554.04
2023-05-04T10:32:31.248Z,98556.27
2023-05-04T10:33:43.033Z,98557.05
2023-05-04T10:34:51.144Z,98557.39
2023-05-04T10:35:58.882Z,98558.81
2023-05-04T10:37:06.010Z,98557.61
2023-05-04T10:38:15.602Z,98557.14
2023-05-04T10:39:24.005Z,98554.29
2023-05-04T10:40:39.931Z,98552.09
2023-05-04T10:42:09.179Z,98551.98
2023-05-04T10:43:24.627Z,98548.59
2023-05-04T10:44:31.637Z,98552.17
2023-05-04T10:45:42.346Z,98549.98
2023-05-04T10:47:03.996Z,98549.83
2023-05-04T10:48:11.397Z,98548.12
2023-05-04T10:49:18.870Z,98549.52
2023-05-04T10:50:25.580Z,98548.08
2023-05-04T10:51:48.657Z,98546.66
2023-05-04T10:52:58.278Z,98547.21
2023-05-04T10:54:06.324Z,98548.10
2023-05-04T10:55:13.052Z,98554.60
2023-05-04T10:56:28.134Z,98554.55
2023-05-04T10:57:35.489Z,98555.55
2023-05-04T10:58:42.551Z,98552.46
2023-05-04T10:59:59.081Z,98552.59
2023-05-04T11:01:14.720Z,98551.84
2023-05-04T11:02:31.669Z,98551.61
2023-05-04T11:03:44.039Z,98551.73
2023-05-04T11:05:02.248Z,98552.62
2023-05-04T11:06:25.410Z,98556.26
2023-05-04T11:07:39.998Z,98552.73
2023-05-04T11:08:50.850Z,98553.08
2023-05-04T11:09:59.093Z,98548.85
2023-05-04T11:11:10.868Z,98550.98
2023-05-04T11:12:18.182Z,98550.71
2023-05-04T11:13:25.549Z,98558.54
2023-05-04T11:14:33.965Z,98554.91
2023-05-04T11:15:49.233Z,98554.44
2023-05-04T11:17:27.301Z,98556.86
2023-05-04T11:18:38.687Z,98555.00
2023-05-04T11:19:52.366Z,98552.86
2023-05-04T11:21:00.591Z,98551.40
2023-05-04T11:22:09.350Z,98549.90
2023-05-04T11:23:19.154Z,98553.04
2023-05-04T11:24:27.617Z,98553.21
2023-05-04T11:25:37.352Z,98555.36
2023-05-04T11:26:50.304Z,98552.23
2023-05-04T11:27:58.479Z,98552.02
2023-05-04T11:29:18.212Z,98554.66
2023-05-04T11:30:36.576Z,98554.62
2023-05-04T11:31:45.606Z,98533.31
2023-05-04T11:32:53.530Z,98532.39
2023-05-04T11:34:00.154Z,98533.65
2023-05-04T11:35:10.577Z,98534.09
2023-05-04T11:36:18.815Z,98536.46
2023-05-04T11:37:27.095Z,98538.08
2023-05-04T11:38:34.626Z,98541.10
2023-05-04T11:39:42.230Z,98545.62
2023-05-04T11:40:53.228Z,98547.61
2023-05-04T11:42:02.344Z,98547.89
2023-05-04T11:43:11.922Z,98549.27
2023-05-04T11:44:21.588Z,98550.81
2023-05-04T11:45:33.813Z,98547.89
2023-05-04T11:46:41.471Z,98543.60
2023-05-04T11:47:49.506Z,98544.15
2023-05-04T11:48:56.899Z,98544.70
2023-05-04T11:50:04.996Z,98535.67
2023-05-04T11:51:12.368Z,98535.08
2023-05-04T11:52:27.680Z,98532.33
2023-05-04T11:53:42.488Z,98535.23
2023-05-04T11:54:59.281Z,98532.27
2023-05-04T11:56:08.087Z,98529.90
2023-05-04T11:57:23.908Z,98533.15
2023-05-04T11:58:31.481Z,98533.15
2023-05-04T11:59:39.598Z,98529.24
2023-05-04T12:00:47.911Z,98528.36
2023-05-04T12:01:55.609Z,98525.83
2023-05-04T12:03:03.436Z,98528.20
2023-05-04T12:04:11.335Z,98528.42
2023-05-04T12:05:18.668Z,98532.29
2023-05-04T12:06:36.258Z,98530.19
2023-05-04T12:07:43.783Z,98528.97
2023-05-04T12:08:50.938Z,98522.87
2023-05-04T12:09:59.223Z,98517.19
2023-05-04T12:11:22.874Z,98521.60
2023-05-04T12:12:37.335Z,98526.34
2023-05-04T12:13:48.462Z,98528.99
2023-05-04T12:14:58.958Z,98525.64
2023-05-04T12:16:20.028Z,98522.42
2023-05-04T12:17:26.960Z,98526.45
2023-05-04T12:18:34.202Z,98528.33
2023-05-04T12:19:57.921Z,98525.64
2023-05-04T12:21:16.277Z,98525.63
2023-05-04T12:22:35.364Z,98526.13
2023-05-04T12:23:43.072Z,98526.14
2023-05-04T12:24:49.773Z,98527.39
2023-05-04T12:25:58.437Z,98525.69
2023-05-04T12:27:09.520Z,98524.86
2023-05-04T12:28:18.047Z,98525.61
2023-05-04T12:29:25.912Z,98525.07
2023-05-04T12:30:33.315Z,98526.33
2023-05-04T12:31:42.285Z,98526.11
2023-05-04T12:32:49.796Z,98522.73
2023-05-04T12:33:58.571Z,98526.05
2023-05-04T12:35:06.947Z,98524.39
2023-05-04T12:36:15.528Z,98528.04
2023-05-04T12:37:24.980Z,98523.80
2023-05-04T12:38:33.116Z,98524.84
2023-05-04T12:39:40.864Z,98530.07
2023-05-04T12:40:47.542Z,98532.83
2023-05-04T12:41:55.007Z,98533.55
2023-05-04T12:43:02.261Z,98533.94
2023-05-04T12:44:11.266Z,98533.98
2023-05-04T12:45:19.772Z,98536.85
2023-05-04T12:46:27.793Z,98535.81
2023-05-04T12:47:36.084Z,98541.42
2023-05-04T12:48:44.233Z,98547.21
2023-05-04T12:49:52.101Z,98553.50
2023-05-04T12:50:59.920Z,98559.95
2023-05-04T12:52:07.043Z,98563.98
2023-05-04T12:53:14.157Z,98563.48
2023-05-04T12:54:21.601Z,98564.30
2023-05-04T12:55:29.037Z,98562.32
2023-05-04T12:56:40.873Z,98560.34
2023-05-04T12:57:48.394Z,98563.42
2023-05-04T12:58:56.180Z,98563.80
2023-05-04T13:00:04.886Z,98567.66
2023-05-04T13:01:12.261Z,98571.19
2023-05-04T13:02:19.967Z,98573.23
2023-05-04T13:03:28.285Z,98573.23
2023-05-04T13:04:35.547Z,98570.91
2023-05-04T13:05:43.270Z,98568.16
2023-05-04T13:06:50.239Z,98565.74
2023-05-04T13:07:57.515Z,98566.23
2023-05-04T13:09:07.023Z,98572.96
2023-05-04T13:10:13.818Z,98576.92
2023-05-04T13:11:24.562Z,98579.52
2023-05-04T13:12:31.525Z,98579.41
2023-05-04T13:13:38.844Z,98577.42
2023-05-04T13:14:45.748Z,98580.51
2023-05-04T13:15:52.970Z,98578.63
2023-05-04T13:17:00.226Z,98577.55
2023-05-04T13:18:07.149Z,98579.58
2023-05-04T13:19:13.995Z,98578.37
2023-05-04T13:20:21.863Z,98578.36
2023-05-04T13:21:29.051Z,98586.19
2023-05-04T13:22:36.952Z,98585.14
2023-05-04T13:23:44.829Z,98583.36
2023-05-04T13:24:52.372Z,98588.72
2023-05-04T13:26:00.567Z,98593.67
2023-05-04T13:27:07.888Z,98601.84
2023-05-04T13:28:15.206Z,98599.31
2023-05-04T13:29:22.452Z,98597.66
2023-05-04T13:30:29.404Z,98601.97